sensor_id;sensor_type;location;lat;lon;timestamp;pressure;altitude;pressure_sealevel;temperature;humidity
65754;BME280;69207;47.502;18.940;2023-04-22T00:00:56;97869.44;;;10.57;62.94
65754;BME280;69207;47.502;18.940;2023-04-22T00:02:00;97875.00;;;10.69;62.83
65754;BME280;69207;47.502;18.940;2023-04-22T00:03:04;97871.19;;;10.74;62.21
65754;BME280;69207;47.502;18.940;2023-04-22T00:04:07;97872.91;;;10.79;61.62
65754;BME280;69207;47.502;18.940;2023-04-22T00:05:11;97870.66;;;10.88;61.64
65754;BME280;69207;47.502;18.940;2023-04-22T00:06:20;97876.06;;;10.97;61.33
65754;BME280;69207;47.502;18.940;2023-04-22T00:07:23;97868.81;;;11.02;60.81
65754;BME280;69207;47.502;18.940;2023-04-22T00:08:26;97870.50;;;11.07;60.78
65754;BME280;69207;47.502;18.940;2023-04-22T00:09:29;97865.84;;;11.09;60.96
65754;BME280;69207;47.502;18.940;2023-04-22T00:10:33;97870.06;;;11.10;61.19
65754;BME280;69207;47.502;18.940;2023-04-22T00:11:36;97868.75;;;11.12;61.08
65754;BME280;69207;47.502;18.940;2023-04-22T00:12:39;97867.31;;;11.10;61.24
65754;BME280;69207;47.502;18.940;2023-04-22T00:13:42;97870.16;;;11.13;60.78
65754;BME280;69207;47.502;18.940;2023-04-22T00:14:46;97873.19;;;11.17;60.83
65754;BME280;69207;47.502;18.940;2023-04-22T00:15:49;97866.63;;;11.22;60.37
65754;BME280;69207;47.502;18.940;2023-04-22T00:16:53;97877.03;;;11.23;60.26
65754;BME280;69207;47.502;18.940;2023-04-22T00:17:57;97870.47;;;11.28;60.00
65754;BME280;69207;47.502;18.940;2023-04-22T00:19:00;97878.22;;;11.32;60.05
65754;BME280;69207;47.502;18.940;2023-04-22T00:20:04;97870.59;;;11.30;60.32
65754;BME280;69207;47.502;18.940;2023-04-22T00:21:08;97866.50;;;11.31;60.22
65754;BME280;69207;47.502;18.940;2023-04-22T00:22:11;97868.09;;;11.34;60.24
65754;BME280;69207;47.502;18.940;2023-04-22T00:23:14;97866.78;;;11.35;60.09
65754;BME280;69207;47.502;18.940;2023-04-22T00:24:17;97871.69;;;11.37;60.02
65754;BME280;69207;47.502;18.940;2023-04-22T00:25:20;97871.09;;;11.39;59.71
65754;BME280;69207;47.502;18.940;2023-04-22T00:26:23;97871.09;;;11.39;59.66
65754;BME280;69207;47.502;18.940;2023-04-22T00:27:27;97864.41;;;11.42;59.64
65754;BME280;69207;47.502;18.940;2023-04-22T00:28:30;97873.97;;;11.41;59.55
65754;BME280;69207;47.502;18.940;2023-04-22T00:29:33;97869.06;;;11.39;59.89
65754;BME280;69207;47.502;18.940;2023-04-22T00:30:36;97870.97;;;11.36;59.98
65754;BME280;69207;47.502;18.940;2023-04-22T00:31:40;97864.28;;;11.40;59.84
65754;BME280;69207;47.502;18.940;2023-04-22T00:32:43;97867.87;;;11.42;59.48
65754;BME280;69207;47.502;18.940;2023-04-22T00:33:46;97875.78;;;11.48;58.95
65754;BME280;69207;47.502;18.940;2023-04-22T00:34:49;97873.03;;;11.59;58.34
65754;BME280;69207;47.502;18.940;2023-04-22T00:35:52;97875.31;;;11.63;58.61
65754;BME280;69207;47.502;18.940;2023-04-22T00:36:56;97884.56;;;11.68;58.23
65754;BME280;69207;47.502;18.940;2023-04-22T00:37:59;97871.25;;;11.64;58.46
65754;BME280;69207;47.502;18.940;2023-04-22T00:39:02;97871.41;;;11.66;58.60
65754;BME280;69207;47.502;18.940;2023-04-22T00:40:06;97875.22;;;11.73;58.78
65754;BME280;69207;47.502;18.940;2023-04-22T00:41:10;97867.56;;;11.71;58.82
65754;BME280;69207;47.502;18.940;2023-04-22T00:42:13;97872.47;;;11.73;59.00
65754;BME280;69207;47.502;18.940;2023-04-22T00:43:17;97873.06;;;11.71;59.12
65754;BME280;69207;47.502;18.940;2023-04-22T00:44:21;97867.56;;;11.71;59.17
65754;BME280;69207;47.502;18.940;2023-04-22T00:45:25;97871.62;;;11.70;59.19
65754;BME280;69207;47.502;18.940;2023-04-22T00:46:29;97867.56;;;11.71;59.19
65754;BME280;69207;47.502;18.940;2023-04-22T00:47:33;97868.66;;;11.66;59.19
65754;BME280;69207;47.502;18.940;2023-04-22T00:48:37;97862.75;;;11.60;59.39
65754;BME280;69207;47.502;18.940;2023-04-22T00:49:40;97869.56;;;11.59;59.56
65754;BME280;69207;47.502;18.940;2023-04-22T00:50:44;97868.03;;;11.56;59.70
65754;BME280;69207;47.502;18.940;2023-04-22T00:51:46;97868.59;;;11.54;59.85
65754;BME280;69207;47.502;18.940;2023-04-22T00:52:49;97863.84;;;11.55;59.91
65754;BME280;69207;47.502;18.940;2023-04-22T00:53:53;97864.91;;;11.50;60.06
65754;BME280;69207;47.502;18.940;2023-04-22T00:54:56;97867.41;;;11.46;60.31
65754;BME280;69207;47.502;18.940;2023-04-22T00:55:59;97863.69;;;11.41;60.68
65754;BME280;69207;47.502;18.940;2023-04-22T00:57:02;97865.84;;;11.43;61.11
65754;BME280;69207;47.502;18.940;2023-04-22T00:58:07;97865.72;;;11.41;61.24
65754;BME280;69207;47.502;18.940;2023-04-22T00:59:12;97860.69;;;11.37;61.26
65754;BME280;69207;47.502;18.940;2023-04-22T01:00:15;97860.56;;;11.35;61.39
65754;BME280;69207;47.502;18.940;2023-04-22T01:01:18;97864.81;;;11.26;62.69
65754;BME280;69207;47.502;18.940;2023-04-22T01:02:22;97861.84;;;11.22;62.53
65754;BME280;69207;47.502;18.940;2023-04-22T01:03:26;97869.38;;;11.22;62.32
65754;BME280;69207;47.502;18.940;2023-04-22T01:04:32;97864.34;;;11.18;62.37
65754;BME280;69207;47.502;18.940;2023-04-22T01:05:36;97868.84;;;11.14;63.00
65754;BME280;69207;47.502;18.940;2023-04-22T01:06:39;97867.87;;;11.09;63.29
65754;BME280;69207;47.502;18.940;2023-04-22T01:07:43;97869.06;;;11.06;63.51
65754;BME280;69207;47.502;18.940;2023-04-22T01:08:47;97874.56;;;11.06;63.48
65754;BME280;69207;47.502;18.940;2023-04-22T01:09:50;97873.59;;;11.01;63.54
65754;BME280;69207;47.502;18.940;2023-04-22T01:10:53;97876.22;;;10.99;63.74
65754;BME280;69207;47.502;18.940;2023-04-22T01:11:57;97875.47;;;10.99;63.82
65754;BME280;69207;47.502;18.940;2023-04-22T01:13:00;97876.06;;;10.97;63.70
65754;BME280;69207;47.502;18.940;2023-04-22T01:14:03;97874.53;;;10.94;63.74
65754;BME280;69207;47.502;18.940;2023-04-22T01:15:07;97879.28;;;10.94;63.67
65754;BME280;69207;47.502;18.940;2023-04-22T01:16:10;97879.44;;;10.96;62.61
65754;BME280;69207;47.502;18.940;2023-04-22T01:17:15;97876.53;;;10.94;62.43
65754;BME280;69207;47.502;18.940;2023-04-22T01:18:18;97885.53;;;10.94;61.97
65754;BME280;69207;47.502;18.940;2023-04-22T01:19:22;97877.41;;;10.96;62.15
65754;BME280;69207;47.502;18.940;2023-04-22T01:20:26;97876.22;;;10.99;61.71
65754;BME280;69207;47.502;18.940;2023-04-22T01:21:34;97873.25;;;11.07;60.96
65754;BME280;69207;47.502;18.940;2023-04-22T01:22:41;97872.28;;;11.02;61.05
65754;BME280;69207;47.502;18.940;2023-04-22T01:23:46;97886.22;;;11.16;61.50
65754;BME280;69207;47.502;18.940;2023-04-22T01:24:49;97884.25;;;11.07;61.11
65754;BME280;69207;47.502;18.940;2023-04-22T01:25:52;97881.84;;;11.01;61.27
65754;BME280;69207;47.502;18.940;2023-04-22T01:26:55;97882.28;;;10.98;61.67
65754;BME280;69207;47.502;18.940;2023-04-22T01:27:59;97886.34;;;10.97;62.03
65754;BME280;69207;47.502;18.940;2023-04-22T01:29:03;97879.16;;;10.92;62.36
65754;BME280;69207;47.502;18.940;2023-04-22T01:30:07;97883.22;;;10.91;62.44
65754;BME280;69207;47.502;18.940;2023-04-22T01:31:10;97884.88;;;10.84;62.83
65754;BME280;69207;47.502;18.940;2023-04-22T01:32:14;97883.44;;;10.83;62.68
65754;BME280;69207;47.502;18.940;2023-04-22T01:33:17;97888.06;;;10.80;62.90
65754;BME280;69207;47.502;18.940;2023-04-22T01:34:21;97886.38;;;10.75;62.62
65754;BME280;69207;47.502;18.940;2023-04-22T01:35:24;97885.66;;;10.75;62.56
65754;BME280;69207;47.502;18.940;2023-04-22T01:36:27;97884.09;;;10.72;62.34
65754;BME280;69207;47.502;18.940;2023-04-22T01:37:30;97885.38;;;10.71;62.79
65754;BME280;69207;47.502;18.940;2023-04-22T01:38:34;97885.97;;;10.69;62.72
65754;BME280;69207;47.502;18.940;2023-04-22T01:39:37;97884.41;;;10.66;62.80
65754;BME280;69207;47.502;18.940;2023-04-22T01:40:40;97886.69;;;10.70;62.76
65754;BME280;69207;47.502;18.940;2023-04-22T01:41:44;97893.38;;;10.67;62.90
65754;BME280;69207;47.502;18.940;2023-04-22T01:42:47;97892.91;;;10.70;62.93
65754;BME280;69207;47.502;18.940;2023-04-22T01:43:56;97889.84;;;10.76;62.66
65754;BME280;69207;47.502;18.940;2023-04-22T01:44:59;97885.72;;;10.65;63.14
65754;BME280;69207;47.502;18.940;2023-04-22T01:46:03;97890.97;;;10.61;63.31
65754;BME280;69207;47.502;18.940;2023-04-22T01:47:07;97885.59;;;10.63;63.25
65754;BME280;69207;47.502;18.940;2023-04-22T01:48:10;97882.31;;;10.55;63.56
65754;BME280;69207;47.502;18.940;2023-04-22T01:49:13;97889.44;;;10.48;64.04
65754;BME280;69207;47.502;18.940;2023-04-22T01:50:17;97890.16;;;10.49;63.78
65754;BME280;69207;47.502;18.940;2023-04-22T01:51:20;97883.22;;;10.48;63.89
65754;BME280;69207;47.502;18.940;2023-04-22T01:52:23;97882.97;;;10.44;64.39
65754;BME280;69207;47.502;18.940;2023-04-22T01:53:28;97879.09;;;10.37;65.23
65754;BME280;69207;47.502;18.940;2023-04-22T01:54:31;97885.16;;;10.36;65.41
65754;BME280;69207;47.502;18.940;2023-04-22T01:55:35;97880.28;;;10.34;65.22
65754;BME280;69207;47.502;18.940;2023-04-22T01:56:39;97888.50;;;10.34;65.35
65754;BME280;69207;47.502;18.940;2023-04-22T01:57:43;97887.63;;;10.31;65.57
65754;BME280;69207;47.502;18.940;2023-04-22T01:58:46;97885.50;;;10.30;65.99
65754;BME280;69207;47.502;18.940;2023-04-22T01:59:49;97885.22;;;10.26;66.56
65754;BME280;69207;47.502;18.940;2023-04-22T02:00:52;97881.03;;;10.25;66.19
65754;BME280;69207;47.502;18.940;2023-04-22T02:01:55;97882.47;;;10.26;65.93
65754;BME280;69207;47.502;18.940;2023-04-22T02:02:58;97883.91;;;10.27;65.92
65754;BME280;69207;47.502;18.940;2023-04-22T02:04:02;97889.28;;;10.25;65.86
65754;BME280;69207;47.502;18.940;2023-04-22T02:05:06;97885.94;;;10.26;65.93
65754;BME280;69207;47.502;18.940;2023-04-22T02:06:09;97887.25;;;10.25;66.00
65754;BME280;69207;47.502;18.940;2023-04-22T02:07:12;97879.72;;;10.26;65.89
65754;BME280;69207;47.502;18.940;2023-04-22T02:08:15;97884.50;;;10.25;65.52
65754;BME280;69207;47.502;18.940;2023-04-22T02:09:18;97885.09;;;10.24;66.12
65754;BME280;69207;47.502;18.940;2023-04-22T02:10:21;97875.53;;;10.25;65.81
65754;BME280;69207;47.502;18.940;2023-04-22T02:11:25;97878.41;;;10.27;65.86
65754;BME280;69207;47.502;18.940;2023-04-22T02:12:28;97878.88;;;10.23;66.11
65754;BME280;69207;47.502;18.940;2023-04-22T02:13:37;97882.63;;;10.28;65.77
65754;BME280;69207;47.502;18.940;2023-04-22T02:14:41;97877.69;;;10.26;65.68
65754;BME280;69207;47.502;18.940;2023-04-22T02:15:44;97881.91;;;10.27;64.87
65754;BME280;69207;47.502;18.940;2023-04-22T02:16:47;97879.88;;;10.28;64.44
65754;BME280;69207;47.502;18.940;2023-04-22T02:17:50;97875.22;;;10.30;63.88
65754;BME280;69207;47.502;18.940;2023-04-22T02:18:53;97874.06;;;10.34;63.60
65754;BME280;69207;47.502;18.940;2023-04-22T02:19:56;97878.97;;;10.35;63.34
65754;BME280;69207;47.502;18.940;2023-04-22T02:20:59;97880.53;;;10.38;63.01
65754;BME280;69207;47.502;18.940;2023-04-22T02:22:02;97879.63;;;10.45;62.50
65754;BME280;69207;47.502;18.940;2023-04-22T02:23:05;97884.41;;;10.45;62.09
65754;BME280;69207;47.502;18.940;2023-04-22T02:24:08;97878.44;;;10.48;62.26
65754;BME280;69207;47.502;18.940;2023-04-22T02:25:11;97872.50;;;10.52;62.13
65754;BME280;69207;47.502;18.940;2023-04-22T02:26:16;97880.16;;;10.53;61.77
65754;BME280;69207;47.502;18.940;2023-04-22T02:27:19;97874.09;;;10.55;61.67
65754;BME280;69207;47.502;18.940;2023-04-22T02:28:22;97879.38;;;10.63;60.28
65754;BME280;69207;47.502;18.940;2023-04-22T02:29:25;97877.47;;;10.65;59.67
65754;BME280;69207;47.502;18.940;2023-04-22T02:30:29;97876.41;;;10.70;59.18
65754;BME280;69207;47.502;18.940;2023-04-22T02:31:32;97872.50;;;10.73;58.99
65754;BME280;69207;47.502;18.940;2023-04-22T02:32:35;97872.50;;;10.73;59.27
65754;BME280;69207;47.502;18.940;2023-04-22T02:33:40;97874.06;;;10.76;59.26
65754;BME280;69207;47.502;18.940;2023-04-22T02:34:43;97874.78;;;10.77;59.27
65754;BME280;69207;47.502;18.940;2023-04-22T02:35:46;97871.56;;;10.80;59.16
65754;BME280;69207;47.502;18.940;2023-04-22T02:36:49;97877.94;;;10.83;59.10
65754;BME280;69207;47.502;18.940;2023-04-22T02:37:52;97874.00;;;10.86;58.99
65754;BME280;69207;47.502;18.940;2023-04-22T02:38:55;97872.22;;;10.91;58.99
65754;BME280;69207;47.502;18.940;2023-04-22T02:39:58;97872.22;;;10.91;58.87
65754;BME280;69207;47.502;18.940;2023-04-22T02:41:01;97871.78;;;10.94;58.33
65754;BME280;69207;47.502;18.940;2023-04-22T02:42:04;97870.97;;;11.03;57.26
65754;BME280;69207;47.502;18.940;2023-04-22T02:43:07;97871.81;;;11.06;57.19
65754;BME280;69207;47.502;18.940;2023-04-22T02:44:10;97860.84;;;11.06;56.83
65754;BME280;69207;47.502;18.940;2023-04-22T02:45:13;97869.06;;;11.06;56.17
65754;BME280;69207;47.502;18.940;2023-04-22T02:46:17;97865.13;;;11.09;56.30
65754;BME280;69207;47.502;18.940;2023-04-22T02:47:20;97869.31;;;11.10;56.38
65754;BME280;69207;47.502;18.940;2023-04-22T02:48:23;97865.50;;;11.15;55.91
65754;BME280;69207;47.502;18.940;2023-04-22T02:49:27;97868.25;;;11.15;55.71
65754;BME280;69207;47.502;18.940;2023-04-22T02:50:30;97867.19;;;11.20;54.93
65754;BME280;69207;47.502;18.940;2023-04-22T02:51:33;97859.94;;;11.25;54.48
65754;BME280;69207;47.502;18.940;2023-04-22T02:52:36;97862.69;;;11.25;54.71
65754;BME280;69207;47.502;18.940;2023-04-22T02:53:39;97865.69;;;11.29;54.86
65754;BME280;69207;47.502;18.940;2023-04-22T02:54:42;97870.47;;;11.28;54.41
65754;BME280;69207;47.502;18.940;2023-04-22T02:55:45;97872.50;;;11.28;54.31
65754;BME280;69207;47.502;18.940;2023-04-22T02:56:48;97864.97;;;11.28;54.61
65754;BME280;69207;47.502;18.940;2023-04-22T02:57:51;97864.97;;;11.28;54.23
65754;BME280;69207;47.502;18.940;2023-04-22T02:58:54;97873.06;;;11.26;54.09
65754;BME280;69207;47.502;18.940;2023-04-22T02:59:57;97868.19;;;11.25;54.06
65754;BME280;69207;47.502;18.940;2023-04-22T03:01:00;97870.94;;;11.25;54.36
65754;BME280;69207;47.502;18.940;2023-04-22T03:02:04;97868.91;;;11.25;54.41
65754;BME280;69207;47.502;18.940;2023-04-22T03:03:08;97868.63;;;11.21;54.42
65754;BME280;69207;47.502;18.940;2023-04-22T03:04:11;97868.19;;;11.25;53.76
65754;BME280;69207;47.502;18.940;2023-04-22T03:05:15;97873.41;;;11.21;54.08
65754;BME280;69207;47.502;18.940;2023-04-22T03:06:19;97875.22;;;11.16;54.51
65754;BME280;69207;47.502;18.940;2023-04-22T03:07:22;97874.34;;;11.14;54.94
65754;BME280;69207;47.502;18.940;2023-04-22T03:08:25;97872.19;;;11.12;54.83
65754;BME280;69207;47.502;18.940;2023-04-22T03:09:28;97871.81;;;11.06;55.28
65754;BME280;69207;47.502;18.940;2023-04-22T03:10:31;97875.03;;;11.02;55.26
65754;BME280;69207;47.502;18.940;2023-04-22T03:11:34;97876.34;;;11.01;55.31
65754;BME280;69207;47.502;18.940;2023-04-22T03:12:37;97878.38;;;11.01;55.39
65754;BME280;69207;47.502;18.940;2023-04-22T03:13:40;97872.72;;;10.99;55.65
65754;BME280;69207;47.502;18.940;2023-04-22T03:14:43;97883.50;;;10.95;55.68
65754;BME280;69207;47.502;18.940;2023-04-22T03:15:46;97877.28;;;10.94;55.54
65754;BME280;69207;47.502;18.940;2023-04-22T03:16:49;97876.16;;;10.88;55.71
65754;BME280;69207;47.502;18.940;2023-04-22T03:17:52;97883.44;;;10.83;55.86
65754;BME280;69207;47.502;18.940;2023-04-22T03:18:55;97874.94;;;10.79;56.10
65754;BME280;69207;47.502;18.940;2023-04-22T03:19:59;97880.03;;;10.73;56.25
65754;BME280;69207;47.502;18.940;2023-04-22T03:21:02;97881.34;;;10.72;56.13
65754;BME280;69207;47.502;18.940;2023-04-22T03:22:06;97876.41;;;10.70;56.01
65754;BME280;69207;47.502;18.940;2023-04-22T03:23:08;97876.75;;;10.65;56.02
65754;BME280;69207;47.502;18.940;2023-04-22T03:24:12;97877.47;;;10.65;55.99
65754;BME280;69207;47.502;18.940;2023-04-22T03:25:15;97879.50;;;10.65;55.63
65754;BME280;69207;47.502;18.940;2023-04-22T03:26:18;97880.53;;;10.60;55.95
65754;BME280;69207;47.502;18.940;2023-04-22T03:27:21;97875.75;;;10.60;56.12
65754;BME280;69207;47.502;18.940;2023-04-22T03:28:24;97881.00;;;10.56;56.37
65754;BME280;69207;47.502;18.940;2023-04-22T03:29:27;97883.50;;;10.52;56.18
65754;BME280;69207;47.502;18.940;2023-04-22T03:30:30;97882.31;;;10.55;56.33
65754;BME280;69207;47.502;18.940;2023-04-22T03:31:33;97875.25;;;10.52;56.49
65754;BME280;69207;47.502;18.940;2023-04-22T03:32:37;97871.50;;;10.47;56.42
65754;BME280;69207;47.502;18.940;2023-04-22T03:33:40;97883.69;;;10.44;56.27
65754;BME280;69207;47.502;18.940;2023-04-22T03:34:43;97880.94;;;10.44;56.49
65754;BME280;69207;47.502;18.940;2023-04-22T03:35:49;97882.97;;;10.44;56.27
65754;BME280;69207;47.502;18.940;2023-04-22T03:36:52;97874.84;;;10.46;56.33
65754;BME280;69207;47.502;18.940;2023-04-22T03:37:55;97880.94;;;10.44;55.97
65754;BME280;69207;47.502;18.940;2023-04-22T03:38:58;97880.47;;;10.48;55.58
65754;BME280;69207;47.502;18.940;2023-04-22T03:40:01;97881.06;;;10.46;56.16
65754;BME280;69207;47.502;18.940;2023-04-22T03:41:08;97884.91;;;10.53;55.90
65754;BME280;69207;47.502;18.940;2023-04-22T03:42:12;97882.66;;;10.49;55.79
65754;BME280;69207;47.502;18.940;2023-04-22T03:43:16;97885.97;;;10.48;56.24
65754;BME280;69207;47.502;18.940;2023-04-22T03:44:19;97892.50;;;10.43;55.59
65754;BME280;69207;47.502;18.940;2023-04-22T03:45:22;97883.84;;;10.37;56.31
65754;BME280;69207;47.502;18.940;2023-04-22T03:46:25;97887.63;;;10.31;57.27
65754;BME280;69207;47.502;18.940;2023-04-22T03:47:28;97886.09;;;10.28;57.53
65754;BME280;69207;47.502;18.940;2023-04-22T03:48:31;97881.44;;;10.21;58.50
65754;BME280;69207;47.502;18.940;2023-04-22T03:49:37;97883.94;;;10.17;59.38
65754;BME280;69207;47.502;18.940;2023-04-22T03:50:40;97890.31;;;10.10;60.38
65754;BME280;69207;47.502;18.940;2023-04-22T03:51:43;97893.06;;;10.10;59.84
65754;BME280;69207;47.502;18.940;2023-04-22T03:52:46;97884.41;;;10.04;60.81
65754;BME280;69207;47.502;18.940;2023-04-22T03:53:49;97890.37;;;10.00;61.13
65754;BME280;69207;47.502;18.940;2023-04-22T03:54:52;97883.28;;;9.97;61.09
65754;BME280;69207;47.502;18.940;2023-04-22T03:55:55;97887.06;;;9.92;61.46
65754;BME280;69207;47.502;18.940;2023-04-22T03:56:59;97882.03;;;9.89;61.34
65754;BME280;69207;47.502;18.940;2023-04-22T03:58:02;97888.81;;;9.88;61.26
65754;BME280;69207;47.502;18.940;2023-04-22T03:59:05;97880.75;;;9.80;61.55
65754;BME280;69207;47.502;18.940;2023-04-22T04:00:08;97890.59;;;9.83;61.40
65754;BME280;69207;47.502;18.940;2023-04-22T04:01:12;97882.50;;;9.75;61.50
65754;BME280;69207;47.502;18.940;2023-04-22T04:02:15;97882.22;;;9.71;61.68
65754;BME280;69207;47.502;18.940;2023-04-22T04:03:18;97897.13;;;9.68;61.77
65754;BME280;69207;47.502;18.940;2023-04-22T04:04:21;97887.44;;;9.67;61.93
65754;BME280;69207;47.502;18.940;2023-04-22T04:05:25;97892.94;;;9.67;62.02
65754;BME280;69207;47.502;18.940;2023-04-22T04:06:28;97896.69;;;9.62;62.02
65754;BME280;69207;47.502;18.940;2023-04-22T04:07:32;97889.63;;;9.59;62.17
65754;BME280;69207;47.502;18.940;2023-04-22T04:08:35;97895.81;;;9.60;62.31
65754;BME280;69207;47.502;18.940;2023-04-22T04:09:38;97896.53;;;9.60;62.69
65754;BME280;69207;47.502;18.940;2023-04-22T04:10:42;97893.38;;;9.54;62.72
65754;BME280;69207;47.502;18.940;2023-04-22T04:11:45;97891.81;;;9.51;63.51
65754;BME280;69207;47.502;18.940;2023-04-22T04:12:48;97902.91;;;9.43;64.06
65754;BME280;69207;47.502;18.940;2023-04-22T04:13:51;97900.34;;;9.36;64.75
65754;BME280;69207;47.502;18.940;2023-04-22T04:14:54;97890.37;;;9.31;65.41
65754;BME280;69207;47.502;18.940;2023-04-22T04:15:58;97895.44;;;9.24;65.90
65754;BME280;69207;47.502;18.940;2023-04-22T04:17:01;97895.31;;;9.22;65.82
65754;BME280;69207;47.502;18.940;2023-04-22T04:18:05;97897.03;;;9.18;66.00
65754;BME280;69207;47.502;18.940;2023-04-22T04:19:08;97895.59;;;9.17;66.21
65754;BME280;69207;47.502;18.940;2023-04-22T04:20:12;97894.16;;;9.16;65.94
65754;BME280;69207;47.502;18.940;2023-04-22T04:21:15;97894.00;;;9.14;66.34
65754;BME280;69207;47.502;18.940;2023-04-22T04:22:18;97904.13;;;9.11;65.52
65754;BME280;69207;47.502;18.940;2023-04-22T04:23:21;97899.34;;;9.12;66.03
65754;BME280;69207;47.502;18.940;2023-04-22T04:24:24;97902.38;;;9.06;66.70
65754;BME280;69207;47.502;18.940;2023-04-22T04:25:27;97905.13;;;9.06;65.18
65754;BME280;69207;47.502;18.940;2023-04-22T04:26:39;97910.75;;;9.08;65.03
65754;BME280;69207;47.502;18.940;2023-04-22T04:27:42;97904.25;;;9.13;64.84
65754;BME280;69207;47.502;18.940;2023-04-22T04:28:46;97900.94;;;9.15;64.85
65754;BME280;69207;47.502;18.940;2023-04-22T04:29:50;97909.31;;;9.17;64.93
65754;BME280;69207;47.502;18.940;2023-04-22T04:30:54;97902.94;;;9.14;64.95
65754;BME280;69207;47.502;18.940;2023-04-22T04:31:57;97904.37;;;9.15;64.95
65754;BME280;69207;47.502;18.940;2023-04-22T04:33:00;97907.84;;;9.16;64.85
65754;BME280;69207;47.502;18.940;2023-04-22T04:34:08;97906.56;;;9.17;64.78
65754;BME280;69207;47.502;18.940;2023-04-22T04:35:11;97905.28;;;9.18;64.63
65754;BME280;69207;47.502;18.940;2023-04-22T04:36:16;97914.34;;;9.20;64.41
65754;BME280;69207;47.502;18.940;2023-04-22T04:37:19;97910.47;;;9.23;64.08
65754;BME280;69207;47.502;18.940;2023-04-22T04:38:25;97914.06;;;9.26;63.65
65754;BME280;69207;47.502;18.940;2023-04-22T04:39:28;97913.34;;;9.25;63.59
65754;BME280;69207;47.502;18.940;2023-04-22T04:40:33;97916.22;;;9.28;63.37
65754;BME280;69207;47.502;18.940;2023-04-22T04:41:36;97909.72;;;9.33;63.30
65754;BME280;69207;47.502;18.940;2023-04-22T04:42:40;97916.66;;;9.34;63.14
65754;BME280;69207;47.502;18.940;2023-04-22T04:43:43;97919.53;;;9.36;62.18
65754;BME280;69207;47.502;18.940;2023-04-22T04:44:48;97913.75;;;9.41;62.35
65754;BME280;69207;47.502;18.940;2023-04-22T04:45:52;97917.50;;;9.46;62.37
65754;BME280;69207;47.502;18.940;2023-04-22T04:46:56;97918.50;;;9.50;61.97
65754;BME280;69207;47.502;18.940;2023-04-22T04:48:00;97916.78;;;9.55;61.71
65754;BME280;69207;47.502;18.940;2023-04-22T04:49:05;97918.03;;;9.64;61.01
65754;BME280;69207;47.502;18.940;2023-04-22T04:50:08;97914.28;;;9.69;60.78
65754;BME280;69207;47.502;18.940;2023-04-22T04:51:11;97919.91;;;9.71;60.46
65754;BME280;69207;47.502;18.940;2023-04-22T04:52:14;97914.84;;;9.77;60.31
65754;BME280;69207;47.502;18.940;2023-04-22T04:53:20;97919.03;;;9.78;60.07
65754;BME280;69207;47.502;18.940;2023-04-22T04:54:23;97923.34;;;9.81;59.47
65754;BME280;69207;47.502;18.940;2023-04-22T04:55:26;97915.69;;;9.89;59.37
65754;BME280;69207;47.502;18.940;2023-04-22T04:56:29;97920.72;;;9.93;59.18
65754;BME280;69207;47.502;18.940;2023-04-22T04:57:33;97926.34;;;9.95;59.10
65754;BME280;69207;47.502;18.940;2023-04-22T04:58:40;97922.44;;;9.98;58.98
65754;BME280;69207;47.502;18.940;2023-04-22T04:59:43;97921.28;;;10.01;58.59
65754;BME280;69207;47.502;18.940;2023-04-22T05:00:46;97931.22;;;10.06;58.19
65754;BME280;69207;47.502;18.940;2023-04-22T05:01:49;97926.00;;;10.10;57.58
65754;BME280;69207;47.502;18.940;2023-04-22T05:02:53;97915.88;;;10.13;57.16
65754;BME280;69207;47.502;18.940;2023-04-22T05:03:56;97926.13;;;10.22;56.78
65754;BME280;69207;47.502;18.940;2023-04-22T05:04:59;97922.81;;;10.23;56.35
65754;BME280;69207;47.502;18.940;2023-04-22T05:06:03;97925.25;;;10.29;56.16
65754;BME280;69207;47.502;18.940;2023-04-22T05:07:06;97926.34;;;10.36;55.94
65754;BME280;69207;47.502;18.940;2023-04-22T05:08:10;97921.72;;;10.38;55.92
65754;BME280;69207;47.502;18.940;2023-04-22T05:09:13;97927.94;;;10.39;56.03
65754;BME280;69207;47.502;18.940;2023-04-22T05:10:16;97934.28;;;10.41;54.98
65754;BME280;69207;47.502;18.940;2023-04-22T05:11:19;97926.31;;;10.45;54.25
65754;BME280;69207;47.502;18.940;2023-04-22T05:12:22;97934.25;;;10.51;54.43
65754;BME280;69207;47.502;18.940;2023-04-22T05:13:25;97926.28;;;10.55;54.23
65754;BME280;69207;47.502;18.940;2023-04-22T05:14:29;97928.56;;;10.58;54.27
65754;BME280;69207;47.502;18.940;2023-04-22T05:15:32;97931.84;;;10.67;53.81
65754;BME280;69207;47.502;18.940;2023-04-22T05:16:36;97938.72;;;10.77;53.09
65754;BME280;69207;47.502;18.940;2023-04-22T05:17:39;97938.97;;;10.81;53.03
65754;BME280;69207;47.502;18.940;2023-04-22T05:18:42;97937.81;;;10.84;53.05
65754;BME280;69207;47.502;18.940;2023-04-22T05:19:45;97933.84;;;10.88;52.79
65754;BME280;69207;47.502;18.940;2023-04-22T05:20:48;97932.25;;;10.94;52.25
65754;BME280;69207;47.502;18.940;2023-04-22T05:21:51;97929.28;;;11.02;51.53
65754;BME280;69207;47.502;18.940;2023-04-22T05:22:54;97938.03;;;11.10;51.40
65754;BME280;69207;47.502;18.940;2023-04-22T05:23:57;97932.22;;;11.16;50.76
65754;BME280;69207;47.502;18.940;2023-04-22T05:25:02;97930.69;;;11.24;50.48
65754;BME280;69207;47.502;18.940;2023-04-22T05:26:05;97928.84;;;11.39;49.22
65754;BME280;69207;47.502;18.940;2023-04-22T05:27:08;97933.88;;;11.42;49.45
65754;BME280;69207;47.502;18.940;2023-04-22T05:28:12;97926.00;;;11.48;49.86
65754;BME280;69207;47.502;18.940;2023-04-22T05:29:15;97926.16;;;11.50;50.36
65754;BME280;69207;47.502;18.940;2023-04-22T05:30:18;97920.31;;;11.56;50.84
65754;BME280;69207;47.502;18.940;2023-04-22T05:31:21;97926.63;;;11.58;50.33
65754;BME280;69207;47.502;18.940;2023-04-22T05:32:24;97926.88;;;11.62;50.63
65754;BME280;69207;47.502;18.940;2023-04-22T05:33:27;97931.34;;;11.68;49.44